createdAt,value
2023-04-16T00:01:54.928Z,32.50
2023-04-16T00:16:54.771Z,33.70
2023-04-16T00:31:54.567Z,33.40
2023-04-16T00:46:54.394Z,36.30
2023-04-16T01:01:54.325Z,36.70
2023-04-16T01:16:54.090Z,39.60
2023-04-16T01:31:53.997Z,37.50
2023-04-16T01:46:53.899Z,37.80
2023-04-16T02:01:53.729Z,35.60
2023-04-16T02:16:54.073Z,38.10
2023-04-16T02:31:53.309Z,41.10
2023-04-16T02:46:53.138Z,42.80
2023-04-16T03:01:53.614Z,39.00
2023-04-16T03:16:52.821Z,39.20
2023-04-16T03:31:52.699Z,51.10
2023-04-16T03:46:52.614Z,54.80
2023-04-16T04:01:52.426Z,58.20
2023-04-16T04:16:52.181Z,57.50
2023-04-16T04:31:52.126Z,62.20
2023-04-16T04:46:51.942Z,61.70
2023-04-16T05:01:51.806Z,58.10
2023-04-16T05:16:51.619Z,54.20
2023-04-16T05:31:51.455Z,57.50
2023-04-16T05:46:51.259Z,59.30
2023-04-16T06:01:51.116Z,66.50
2023-04-16T06:16:50.978Z,62.70
2023-04-16T06:31:50.842Z,57.30
2023-04-16T06:46:50.679Z,48.10
2023-04-16T07:01:50.611Z,51.20
2023-04-16T07:16:50.367Z,45.40
2023-04-16T07:31:50.255Z,41.00
2023-04-16T07:46:50.056Z,43.10
2023-04-16T08:01:49.918Z,42.20
2023-04-16T08:16:49.721Z,37.30
2023-04-16T08:31:49.668Z,39.50
2023-04-16T08:46:50.548Z,39.50
2023-04-16T09:01:49.289Z,39.00
2023-04-16T09:16:49.144Z,41.20
2023-04-16T09:31:48.975Z,40.60
2023-04-16T09:46:48.852Z,35.60
2023-04-16T10:01:48.766Z,25.80
2023-04-16T10:16:48.562Z,27.40
2023-04-16T10:31:48.280Z,31.10
2023-04-16T10:46:48.197Z,27.50
2023-04-16T11:01:48.041Z,25.90
2023-04-16T11:16:47.858Z,21.50
2023-04-16T11:31:47.714Z,19.00
2023-04-16T11:46:47.525Z,19.00
2023-04-16T12:01:47.355Z,19.10
2023-04-16T12:16:48.314Z,18.60
2023-04-16T12:31:46.994Z,20.90
2023-04-16T12:46:50.003Z,21.30
2023-04-16T13:01:46.841Z,19.20
2023-04-16T13:16:46.563Z,16.00
2023-04-16T13:31:46.461Z,16.80
2023-04-16T13:46:46.275Z,17.70
2023-04-16T14:01:46.061Z,29.50
2023-04-16T14:16:45.963Z,18.80
2023-04-16T14:31:45.949Z,15.70
2023-04-16T14:46:45.590Z,14.60
2023-04-16T15:01:50.225Z,12.00
2023-04-16T15:16:45.322Z,14.40
2023-04-16T15:31:45.107Z,13.40
2023-04-16T15:46:45.092Z,12.90
2023-04-16T16:01:45.055Z,13.90
2023-04-16T16:16:44.769Z,15.30
2023-04-16T16:31:44.676Z,15.70
2023-04-16T16:46:44.363Z,14.50
2023-04-16T17:01:44.224Z,13.80
2023-04-16T17:16:44.196Z,12.60
2023-04-16T17:31:43.882Z,12.40
2023-04-16T17:46:43.704Z,12.90
2023-04-16T18:01:43.596Z,13.90
2023-04-16T18:16:43.429Z,14.40
2023-04-16T18:31:43.524Z,12.50
2023-04-16T18:46:43.115Z,14.70
2023-04-16T19:01:42.908Z,16.40
2023-04-16T19:16:42.859Z,15.90
2023-04-16T19:31:43.990Z,15.90
2023-04-16T19:46:42.460Z,14.90
2023-04-16T20:01:42.886Z,15.30
2023-04-16T20:16:42.279Z,19.20
2023-04-16T20:31:41.979Z,18.70
2023-04-16T20:46:41.910Z,20.30
2023-04-16T21:01:41.813Z,19.40
2023-04-16T21:16:41.495Z,21.30
2023-04-16T21:31:41.586Z,17.80
2023-04-16T21:46:41.338Z,18.70
2023-04-16T22:01:41.117Z,21.50
2023-04-16T22:16:40.952Z,22.00
2023-04-16T22:31:40.777Z,23.00
2023-04-16T22:46:40.538Z,22.30
2023-04-16T23:01:40.453Z,23.40
2023-04-16T23:16:40.328Z,20.40
2023-04-16T23:31:40.189Z,23.00
2023-04-16T23:46:39.957Z,22.70
